createdAt,value
2022-12-01T00:04:30.522Z,1.08
2022-12-01T00:12:04.660Z,1.05
2022-12-01T00:19:40.001Z,1.11
2022-12-01T00:27:14.141Z,1.10
2022-12-01T00:34:49.630Z,1.00
2022-12-01T00:42:23.516Z,1.11
2022-12-01T00:49:59.240Z,1.06
2022-12-01T00:57:33.197Z,1.09
2022-12-01T01:05:09.412Z,1.13
2022-12-01T01:12:43.736Z,1.08
2022-12-01T01:20:19.335Z,1.13
2022-12-01T01:27:53.303Z,1.14
2022-12-01T01:35:28.841Z,1.07
2022-12-01T01:43:02.785Z,1.04
2022-12-01T01:50:38.149Z,1.13
2022-12-01T01:58:13.362Z,1.06
2022-12-01T02:05:48.980Z,1.11
2022-12-01T02:13:28.958Z,1.07
2022-12-01T02:21:26.838Z,1.09
2022-12-01T02:29:27.472Z,1.04
2022-12-01T02:37:10.747Z,1.05
2022-12-01T02:44:47.176Z,0.99
2022-12-01T02:52:25.109Z,0.96
2022-12-01T03:00:00.592Z,0.97
2022-12-01T03:07:57.494Z,0.96
2022-12-01T03:15:36.821Z,0.96
2022-12-01T03:23:16.444Z,1.01
2022-12-01T03:30:53.790Z,1.01
2022-12-01T03:38:31.965Z,0.98
2022-12-01T03:46:10.573Z,0.94
2022-12-01T03:53:52.567Z,1.02
2022-12-01T04:01:28.466Z,0.94
2022-12-01T04:09:03.957Z,0.90
2022-12-01T04:16:38.101Z,0.85
2022-12-01T04:24:14.396Z,0.77
2022-12-01T04:31:48.694Z,0.74
2022-12-01T04:39:24.164Z,0.85
2022-12-01T04:46:58.242Z,0.89
2022-12-01T04:54:33.294Z,0.88
2022-12-01T05:02:08.074Z,0.84
2022-12-01T05:09:43.605Z,0.80
2022-12-01T05:17:17.666Z,0.74
2022-12-01T05:24:52.864Z,0.76
2022-12-01T05:32:26.691Z,0.74
2022-12-01T05:40:01.853Z,0.75
2022-12-01T05:47:35.913Z,0.81
2022-12-01T05:55:11.476Z,0.79
2022-12-01T06:02:46.264Z,0.75
2022-12-01T06:10:21.728Z,0.75
2022-12-01T06:17:55.557Z,0.76
2022-12-01T06:25:30.812Z,0.85
2022-12-01T06:33:04.845Z,0.89
2022-12-01T06:40:40.383Z,0.74
2022-12-01T06:48:14.315Z,0.72
2022-12-01T06:55:49.685Z,0.77
2022-12-01T07:03:24.907Z,0.83
2022-12-01T07:11:01.501Z,0.69
2022-12-01T07:18:36.963Z,0.67
2022-12-01T07:26:14.646Z,0.74
2022-12-01T07:33:48.429Z,0.73
2022-12-01T07:41:23.696Z,0.71
2022-12-01T07:48:58.516Z,0.75
2022-12-01T07:56:34.384Z,0.82
2022-12-01T08:04:08.802Z,0.80
2022-12-01T08:11:44.084Z,0.76
2022-12-01T08:19:18.048Z,0.85
2022-12-01T08:26:53.351Z,0.89
2022-12-01T08:34:27.708Z,0.91
2022-12-01T08:42:03.219Z,0.95
2022-12-01T08:49:37.070Z,0.87
2022-12-01T08:57:12.312Z,0.93
2022-12-01T09:04:47.341Z,1.06
2022-12-01T09:12:22.758Z,0.96
2022-12-01T09:19:56.578Z,0.99
2022-12-01T09:27:31.858Z,1.03
2022-12-01T09:35:06.140Z,1.00
2022-12-01T09:42:41.264Z,1.03
2022-12-01T09:50:19.072Z,1.00
2022-12-01T09:57:55.819Z,1.08
2022-12-01T10:05:51.290Z,1.09
2022-12-01T10:13:35.325Z,1.12
2022-12-01T10:21:16.241Z,1.23
2022-12-01T10:29:21.547Z,1.24
2022-12-01T10:36:55.785Z,1.25
2022-12-01T10:44:32.149Z,1.22
2022-12-01T10:52:07.580Z,1.24
2022-12-01T10:59:50.927Z,1.26
2022-12-01T11:07:28.275Z,1.29
2022-12-01T11:15:05.688Z,1.41
2022-12-01T11:22:39.489Z,1.39
2022-12-01T11:30:23.719Z,1.41
2022-12-01T11:38:28.224Z,1.48
2022-12-01T11:45:57.132Z,1.60
2022-12-01T11:53:35.046Z,1.46
2022-12-01T12:01:22.285Z,1.49
2022-12-01T12:09:12.582Z,1.51
2022-12-01T12:17:08.009Z,1.50
2022-12-01T12:24:54.237Z,1.56
2022-12-01T12:32:44.582Z,1.63
2022-12-01T12:40:35.096Z,1.69
2022-12-01T12:48:24.988Z,1.71
2022-12-01T12:56:02.126Z,1.73
2022-12-01T13:03:45.133Z,1.70
2022-12-01T13:11:23.922Z,1.61
2022-12-01T13:19:05.919Z,1.67
2022-12-01T13:26:42.002Z,1.72
2022-12-01T13:34:38.374Z,1.61
2022-12-01T13:42:22.696Z,1.70
2022-12-01T13:49:58.596Z,1.68
2022-12-01T13:57:34.021Z,1.63
2022-12-01T14:05:47.401Z,1.61
2022-12-01T14:13:23.560Z,1.61
2022-12-01T14:20:59.191Z,1.63
2022-12-01T14:29:11.657Z,1.66
2022-12-01T14:36:49.246Z,1.56
2022-12-01T14:44:28.653Z,1.51
2022-12-01T14:52:08.141Z,1.58
2022-12-01T14:59:42.596Z,1.59
2022-12-01T15:07:22.623Z,1.58
2022-12-01T15:14:56.643Z,1.72
2022-12-01T15:22:33.005Z,1.78
2022-12-01T15:30:08.342Z,1.76
2022-12-01T15:37:45.377Z,1.78
2022-12-01T15:45:21.762Z,1.88
2022-12-01T15:52:58.017Z,1.81
2022-12-01T16:00:32.902Z,1.67
2022-12-01T16:08:17.522Z,1.60
2022-12-01T16:15:51.262Z,1.54
2022-12-01T16:23:27.371Z,1.52
2022-12-01T16:31:01.224Z,1.52
2022-12-01T16:38:36.654Z,1.55
2022-12-01T16:46:12.967Z,1.54
2022-12-01T16:53:51.107Z,1.45
2022-12-01T17:01:26.902Z,1.46
2022-12-01T17:09:02.128Z,1.50
2022-12-01T17:16:36.169Z,1.52
2022-12-01T17:24:11.669Z,1.50
2022-12-01T17:31:45.514Z,1.52
2022-12-01T17:39:21.084Z,1.37
2022-12-01T17:46:55.326Z,1.37
2022-12-01T17:54:30.597Z,1.46
2022-12-01T18:02:06.399Z,1.49
2022-12-01T18:09:41.788Z,1.49
2022-12-01T18:17:15.694Z,1.47
2022-12-01T18:24:51.158Z,1.52
2022-12-01T18:32:25.399Z,1.51
2022-12-01T18:40:00.772Z,1.49
2022-12-01T18:47:34.663Z,1.56
2022-12-01T18:55:10.997Z,1.57
2022-12-01T19:02:45.809Z,1.56
2022-12-01T19:10:22.454Z,1.60
2022-12-01T19:17:56.357Z,1.59
2022-12-01T19:25:31.906Z,1.62
2022-12-01T19:33:06.299Z,1.63
2022-12-01T19:40:42.129Z,1.67
2022-12-01T19:48:15.962Z,1.71
2022-12-01T19:55:51.118Z,1.70
2022-12-01T20:03:24.844Z,1.69
2022-12-01T20:11:02.665Z,1.70
2022-12-01T20:18:37.077Z,1.71
2022-12-01T20:26:13.427Z,1.74
2022-12-01T20:33:48.073Z,1.74
2022-12-01T20:41:23.483Z,1.73
2022-12-01T20:48:57.540Z,1.75
2022-12-01T20:56:33.629Z,1.72
2022-12-01T21:04:08.557Z,1.71
2022-12-01T21:12:05.579Z,1.74
2022-12-01T21:19:46.491Z,1.75
2022-12-01T21:27:21.628Z,1.77
2022-12-01T21:34:59.588Z,1.75
2022-12-01T21:42:37.739Z,1.76
2022-12-01T21:50:19.933Z,1.74
2022-12-01T21:57:55.783Z,1.72
2022-12-01T22:05:34.574Z,1.65
2022-12-01T22:13:12.293Z,1.60
2022-12-01T22:20:46.442Z,1.59
2022-12-01T22:28:24.754Z,1.51
2022-12-01T22:35:59.951Z,1.50
2022-12-01T22:43:43.234Z,1.46
2022-12-01T22:51:24.054Z,1.45
2022-12-01T22:58:59.372Z,1.48
2022-12-01T23:07:08.012Z,1.50
2022-12-01T23:14:47.180Z,1.53
2022-12-01T23:22:21.169Z,1.52
2022-12-01T23:29:57.503Z,1.52
2022-12-01T23:37:35.484Z,1.54
2022-12-01T23:45:17.870Z,1.51
2022-12-01T23:52:52.174Z,1.56
